Waco, TX

3:06 AM CDT en Octubre 20, 2014 (GMT -0500)
Greenleaf Peninsula | Change Station
CLOSE
Current Station
Estación meteorológica personal
Location: Waco, TX
Altura: 580 ft
Estaciones meteorológicas cercanas

Alt 580 ft 31.56 °N, 97.20 °W | Updated 1 minute ago

Despejado
Despejado
63.1 ° F
Sensación térmica 63.1 ° F
N
3.0
Viento Variable Viento desde Este
Gusts 5.0 mph

Hoy
Alta -- | Baja -- ° F
--% Posibilidad de precipitaciones
Ayer
Alta -- | Baja -- ° F
Precip. -- pul
7:35 AM 6:50 PM
Creciente menguante, 12% visible
Presión 30.04 pul
Visibilidad 10.0 Millas
Nubes Despejado
Punto de rocío 59 ° F
Humedad 86%
Precipitaciones 0.00 pul
Espesor de la nieve No disponible.
UV 0 de una escala de 12
Polen 7.00 de una escala de 12
Ozono Buena
PM2.5 Buena
Flu Activity Sporadic
METAR KACT 200751Z 00000KT 10SM CLR 15/14 A3005 RMK AO2 SLP170 T01500139

More Conditions Fewer Conditions

Presión 30.04 pul
Visibilidad 10.0 Millas
Nubes Despejado
Punto de rocío 59 ° F
Humedad 86%
Precipitaciones 0.00 pul
Espesor de la nieve No disponible.
UV 0 de una escala de 12
Polen 7.00 de una escala de 12
Ozono Buena
PM2.5 Buena
Flu Activity Sporadic
METAR KACT 200751Z 00000KT 10SM CLR 15/14 A3005 RMK AO2 SLP170 T01500139

More Conditions Fewer Conditions

10-Day Weather Forecast

Almanac

Astronomía

Oct. 20, 2014 Salida Puesta
Hora real 7:35 AM CDT 6:50 PM CDT
Crepúsculo civil 7:10 AM CDT 7:15 PM CDT
Crepúsculo náutico 6:42 AM CDT 7:43 PM CDT
Crepúsculo astronómico 6:14 AM CDT 8:12 PM CDT
Luna 4:36 AM CDT 5:04 PM CDT
Horas de luz 12h 04m
Horas de luz
11h 15m
Creciente menguante, 12% of the Moon is Illuminated
Hoy
Creciente menguante
Oct 23
Nueva
Oct 30
Cuarto creciente
Nov 6
Luna llena
Nov 14
Cuarto menguante

Extremos de hoy

Máximos del estado Bajos del estado

Community

WunderPhotos

Upload Photos

1,763,316 ¡fotos cargadas!

Nearby

Calidad del aire

  Calidad del aire Índice AQ Contaminante
Ayer Buena
PM2.5
Ayer Buena
OZONE
Real Buena
PM2.5
Real Buena
OZONE
Lunes Buena
PM10
Lunes Buena
OZONE
Martes Buena
PM10
Martes Buena
OZONE

Grosos de nieve

Estación Profundido Altura
No tenemos constancia de nieve nueva.

Actividad de terremotos

Ciudad Distance Mag. Tiempo y dato
No hay informes recientes de la actividad sísmica.
Magnitud mínima muestra es 2,5.

Temperaturas de aguas costeras

Lugar Temperatura
Sin partes meteorológicos de las estaciones

Estaciones meteorológicas cercanas